createdAt,value
2024-03-12T00:00:55.117Z,100341.00
2024-03-12T00:05:56.923Z,100355.00
2024-03-12T00:10:58.788Z,100360.75
2024-03-12T00:16:00.770Z,100369.16
2024-03-12T00:21:02.487Z,100372.03
2024-03-12T00:26:04.402Z,100377.56
2024-03-12T00:31:06.411Z,100385.47
2024-03-12T00:36:08.298Z,100387.75
2024-03-12T00:41:10.106Z,100393.16
2024-03-12T00:46:12.045Z,100394.53
2024-03-12T00:51:14.072Z,100398.22
2024-03-12T00:56:15.726Z,100406.81
2024-03-12T01:01:17.492Z,100415.56
2024-03-12T01:06:19.228Z,100419.44
2024-03-12T01:11:20.923Z,100425.22
2024-03-12T01:16:22.699Z,100431.78
2024-03-12T01:21:24.388Z,100430.44
2024-03-12T01:26:26.170Z,100428.13
2024-03-12T01:31:27.763Z,100429.75
2024-03-12T01:36:29.462Z,100430.00
2024-03-12T01:41:34.490Z,100435.50
2024-03-12T01:46:37.206Z,100438.84
2024-03-12T01:51:38.985Z,100441.00
2024-03-12T01:56:40.768Z,100448.94
2024-03-12T02:01:42.561Z,100444.88
2024-03-12T02:06:48.268Z,100452.13
2024-03-12T02:11:49.914Z,100454.53
2024-03-12T02:16:51.659Z,100448.84
2024-03-12T02:21:53.395Z,100455.25
2024-03-12T02:26:55.059Z,100453.53
2024-03-12T02:31:56.760Z,100464.19
2024-03-12T02:36:58.428Z,100461.66
2024-03-12T02:42:00.156Z,100479.41
2024-03-12T02:47:01.933Z,100481.22
2024-03-12T02:52:04.088Z,100494.94
2024-03-12T02:57:05.800Z,100488.19
2024-03-12T03:02:07.640Z,100502.53
2024-03-12T03:07:09.306Z,100496.03
2024-03-12T03:12:11.210Z,100502.16
2024-03-12T03:17:12.870Z,100498.22
2024-03-12T03:22:14.532Z,100516.59
2024-03-12T03:27:16.228Z,100514.53
2024-03-12T03:32:18.025Z,100523.66
2024-03-12T03:37:19.994Z,100524.91
2024-03-12T03:42:21.680Z,100526.72
2024-03-12T03:47:23.662Z,100523.00
2024-03-12T03:52:25.315Z,100533.28
2024-03-12T03:57:27.291Z,100536.28
2024-03-12T04:02:29.033Z,100532.88
2024-03-12T04:07:30.939Z,100544.66
2024-03-12T04:12:32.636Z,100551.78
2024-03-12T04:17:34.642Z,100560.56
2024-03-12T04:22:39.697Z,100571.28
2024-03-12T04:27:41.677Z,100577.25
2024-03-12T04:32:43.707Z,100580.66
2024-03-12T04:37:45.437Z,100584.38
2024-03-12T04:42:47.124Z,100588.97
2024-03-12T04:47:50.243Z,100595.16
2024-03-12T04:52:52.266Z,100595.66
2024-03-12T04:57:54.019Z,100599.47
2024-03-12T05:02:55.923Z,100619.22
2024-03-12T05:07:57.627Z,100616.50
2024-03-12T05:12:59.437Z,100632.13
2024-03-12T05:18:01.033Z,100644.91
2024-03-12T05:23:02.783Z,100649.28
2024-03-12T05:28:04.589Z,100654.78
2024-03-12T05:33:06.507Z,100663.16
2024-03-12T05:38:08.255Z,100664.31
2024-03-12T05:43:13.629Z,100666.66
2024-03-12T05:48:15.409Z,100667.75
2024-03-12T05:53:17.042Z,100678.78
2024-03-12T05:58:18.729Z,100686.75
2024-03-12T06:03:20.452Z,100689.13
2024-03-12T06:08:22.403Z,100702.09
2024-03-12T06:13:24.809Z,100707.78
2024-03-12T06:18:26.986Z,100713.81
2024-03-12T06:23:28.677Z,100724.97
2024-03-12T06:28:30.453Z,100728.19
2024-03-12T06:33:34.814Z,100739.63
2024-03-12T06:38:36.752Z,100744.59
2024-03-12T06:43:38.322Z,100756.13
2024-03-12T06:48:40.088Z,100756.47
2024-03-12T06:53:41.674Z,100768.03
2024-03-12T06:58:43.422Z,100776.91
2024-03-12T07:03:46.185Z,100793.34
2024-03-12T07:08:48.675Z,100794.75
2024-03-12T07:13:50.529Z,100799.59
2024-03-12T07:18:52.150Z,100807.25
2024-03-12T07:23:53.821Z,100807.34
2024-03-12T07:28:55.400Z,100815.59
2024-03-12T07:33:57.175Z,100817.59
2024-03-12T07:38:59.031Z,100828.38
2024-03-12T07:44:00.759Z,100824.78
2024-03-12T07:49:02.502Z,100832.28
2024-03-12T07:54:04.503Z,100832.78
2024-03-12T07:59:06.363Z,100840.06
2024-03-12T08:04:08.233Z,100835.13
2024-03-12T08:09:09.935Z,100836.63
2024-03-12T08:14:11.770Z,100833.91
2024-03-12T08:19:14.041Z,100845.41
2024-03-12T08:24:16.034Z,100850.31
2024-03-12T08:29:17.962Z,100849.34
2024-03-12T08:34:19.912Z,100857.53
2024-03-12T08:39:21.558Z,100858.19
2024-03-12T08:44:23.801Z,100875.88
2024-03-12T08:49:25.634Z,100879.34
2024-03-12T08:54:27.465Z,100882.00
2024-03-12T08:59:29.896Z,100895.28
2024-03-12T09:04:31.793Z,100895.19
2024-03-12T09:09:34.229Z,100901.50
2024-03-12T09:14:36.097Z,100905.84
2024-03-12T09:19:38.077Z,100910.63
2024-03-12T09:24:39.891Z,100911.38
2024-03-12T09:29:41.971Z,100908.94
2024-03-12T09:34:43.867Z,100917.34
2024-03-12T09:39:45.662Z,100918.75
2024-03-12T09:44:49.043Z,100919.06
2024-03-12T09:49:51.585Z,100924.38
2024-03-12T09:54:53.489Z,100926.47
2024-03-12T09:59:55.311Z,100932.19
2024-03-12T10:04:57.268Z,100930.53
2024-03-12T10:09:59.542Z,100934.03
2024-03-12T10:15:01.356Z,100928.47
2024-03-12T10:20:07.553Z,100928.72
2024-03-12T10:25:09.609Z,100923.50
2024-03-12T10:30:24.524Z,100935.34
2024-03-12T10:35:26.245Z,100934.88
2024-03-12T10:40:28.118Z,100933.72
2024-03-12T10:45:30.315Z,100943.47
2024-03-12T10:50:32.157Z,100944.84
2024-03-12T10:55:33.913Z,100949.91
2024-03-12T11:00:36.892Z,100951.22
2024-03-12T11:05:39.355Z,100948.28
2024-03-12T11:10:41.306Z,100951.44
2024-03-12T11:15:43.543Z,100967.28
2024-03-12T11:20:45.492Z,100964.19
2024-03-12T11:25:50.572Z,100965.03
2024-03-12T11:30:55.809Z,100960.47
2024-03-12T11:35:57.971Z,100963.81
2024-03-12T11:40:59.728Z,100963.66
2024-03-12T11:46:01.645Z,100974.09
2024-03-12T11:51:03.795Z,100963.00
2024-03-12T11:56:08.060Z,100965.19
2024-03-12T12:01:20.979Z,100973.56
2024-03-12T12:06:22.900Z,100974.09
2024-03-12T12:11:24.747Z,100971.53
2024-03-12T12:16:26.427Z,100967.69
2024-03-12T12:21:28.328Z,100952.38
2024-03-12T12:26:30.380Z,100952.72
2024-03-12T12:31:33.324Z,100950.00
2024-03-12T12:36:36.733Z,100941.53
2024-03-12T12:41:38.525Z,100942.31
2024-03-12T12:46:41.303Z,100940.44
2024-03-12T12:51:44.435Z,100940.06
2024-03-12T12:56:46.405Z,100935.00
2024-03-12T13:01:48.909Z,100931.13
2024-03-12T13:06:51.853Z,100930.59
2024-03-12T13:11:53.625Z,100918.75
2024-03-12T13:16:55.851Z,100913.63
2024-03-12T13:21:58.098Z,100923.03
2024-03-12T13:26:59.902Z,100922.28
2024-03-12T13:32:01.796Z,100920.28
2024-03-12T13:37:03.496Z,100927.00
2024-03-12T13:42:05.366Z,100930.53
2024-03-12T13:47:07.290Z,100927.72
2024-03-12T13:52:09.099Z,100936.50
2024-03-12T13:57:11.867Z,100933.16
2024-03-12T14:02:13.809Z,100934.03
2024-03-12T14:07:15.899Z,100931.03
2024-03-12T14:12:17.757Z,100931.91
2024-03-12T14:17:19.610Z,100930.25
2024-03-12T14:22:21.415Z,100933.63
2024-03-12T14:27:24.281Z,100928.16
2024-03-12T14:32:26.147Z,100925.69
2024-03-12T14:37:27.861Z,100924.25
2024-03-12T14:42:29.566Z,100929.19
2024-03-12T14:47:31.431Z,100926.19
2024-03-12T14:52:34.299Z,100915.91
2024-03-12T14:57:35.944Z,100916.06
2024-03-12T15:02:38.105Z,100913.31
2024-03-12T15:07:40.147Z,100914.81
2024-03-12T15:12:42.163Z,100910.09
2024-03-12T15:17:44.020Z,100902.50
2024-03-12T15:22:46.677Z,100903.72
2024-03-12T15:27:48.768Z,100898.97
2024-03-12T15:32:50.495Z,100888.91
2024-03-12T15:37:52.372Z,100878.66
2024-03-12T15:42:54.180Z,100872.09
2024-03-12T15:47:55.929Z,100870.22
2024-03-12T15:52:57.650Z,100878.44
2024-03-12T15:57:59.735Z,100869.41
2024-03-12T16:03:01.880Z,100870.88
2024-03-12T16:08:04.685Z,100861.41
2024-03-12T16:13:06.667Z,100863.56
2024-03-12T16:18:08.622Z,100872.91
2024-03-12T16:23:12.084Z,100872.78
2024-03-12T16:28:14.029Z,100870.53
2024-03-12T16:33:15.899Z,100865.75
2024-03-12T16:38:17.704Z,100873.31
2024-03-12T16:43:19.604Z,100865.50
2024-03-12T16:48:21.465Z,100868.22
2024-03-12T16:53:23.265Z,100867.59
2024-03-12T16:58:25.070Z,100864.59
2024-03-12T17:03:27.151Z,100862.28
2024-03-12T17:08:28.828Z,100871.31
2024-03-12T17:13:30.708Z,100864.25
2024-03-12T17:18:32.339Z,100876.31
2024-03-12T17:23:34.010Z,100871.78
2024-03-12T17:28:35.763Z,100871.88
2024-03-12T17:33:37.605Z,100881.06
2024-03-12T17:38:39.968Z,100883.41
2024-03-12T17:43:41.829Z,100891.44
2024-03-12T17:48:43.884Z,100897.94
2024-03-12T17:53:45.680Z,100894.19
2024-03-12T17:58:50.112Z,100905.13
2024-03-12T18:03:51.845Z,100904.72
2024-03-12T18:08:55.475Z,100902.69
2024-03-12T18:13:57.316Z,100891.66
2024-03-12T18:18:58.962Z,100894.81
2024-03-12T18:24:00.545Z,100898.06
2024-03-12T18:29:02.252Z,100889.34
2024-03-12T18:34:03.971Z,100885.44
2024-03-12T18:39:05.596Z,100887.94
2024-03-12T18:44:07.269Z,100878.97
2024-03-12T18:49:09.172Z,100882.06
2024-03-12T18:54:11.078Z,100885.03
2024-03-12T18:59:12.758Z,100884.91
2024-03-12T19:04:14.571Z,100880.31
2024-03-12T19:09:16.390Z,100870.88
2024-03-12T19:14:18.124Z,100866.81
2024-03-12T19:19:20.296Z,100851.94
2024-03-12T19:24:22.624Z,100852.78
2024-03-12T19:29:24.342Z,100859.19
2024-03-12T19:34:26.099Z,100853.94
2024-03-12T19:39:27.776Z,100847.06
2024-03-12T19:44:29.444Z,100853.66
2024-03-12T19:49:31.118Z,100845.16
2024-03-12T19:54:32.669Z,100846.13
2024-03-12T19:59:34.305Z,100848.06
2024-03-12T20:04:35.876Z,100840.09
2024-03-12T20:09:37.412Z,100834.72
2024-03-12T20:14:39.064Z,100841.13
2024-03-12T20:19:40.604Z,100835.94
2024-03-12T20:24:42.148Z,100832.16
2024-03-12T20:29:43.901Z,100825.47
2024-03-12T20:34:45.615Z,100832.00
2024-03-12T20:39:47.730Z,100824.13
2024-03-12T20:44:52.198Z,100823.00
2024-03-12T20:49:53.785Z,100825.47
2024-03-12T20:54:55.351Z,100828.38
2024-03-12T20:59:57.032Z,100831.81
2024-03-12T21:04:58.768Z,100827.78
2024-03-12T21:10:00.383Z,100824.25
2024-03-12T21:15:01.932Z,100819.34
2024-03-12T21:20:03.837Z,100807.59
2024-03-12T21:25:05.622Z,100812.66
2024-03-12T21:30:07.596Z,100810.69
2024-03-12T21:35:09.412Z,100808.66
2024-03-12T21:40:11.251Z,100802.31
2024-03-12T21:45:13.269Z,100801.81
2024-03-12T21:50:15.557Z,100817.00
2024-03-12T21:55:17.814Z,100798.19
2024-03-12T22:00:20.838Z,100793.66
2024-03-12T22:05:23.026Z,100791.84
2024-03-12T22:10:24.597Z,100793.56
2024-03-12T22:15:26.206Z,100783.22
2024-03-12T22:20:27.773Z,100792.03
2024-03-12T22:25:29.485Z,100792.66
2024-03-12T22:30:31.190Z,100785.78
2024-03-12T22:35:32.949Z,100786.38
2024-03-12T22:40:34.869Z,100787.22
2024-03-12T22:45:37.199Z,100782.59
2024-03-12T22:50:39.089Z,100771.00
2024-03-12T22:55:40.867Z,100766.75
2024-03-12T23:00:42.581Z,100772.47
2024-03-12T23:05:44.296Z,100782.09
2024-03-12T23:10:46.478Z,100764.47
2024-03-12T23:15:48.216Z,100767.09
2024-03-12T23:20:49.862Z,100761.63
2024-03-12T23:25:51.657Z,100761.53
2024-03-12T23:30:53.391Z,100755.94
2024-03-12T23:35:54.988Z,100765.25
2024-03-12T23:40:56.513Z,100765.00
2024-03-12T23:45:58.033Z,100763.28
2024-03-12T23:50:59.693Z,100771.59
2024-03-12T23:56:01.333Z,100778.28
